Time;durP1;ratioP1;P1;durP2;ratioP2;P2;SDS_P1;SDS_P2;PMS_P1;PMS_P2;Temp;Humidity;BMP_temperature;BMP_pressure;BME280_temperature;BME280_humidity;BME280_pressure;Samples;Min_cycle;Max_cycle;Signal;HPM_P1;HPM_P2
2023/03/29 00:00:58;;;;;;;51.35;48.42;;;5.90;99.90;;;;;;5267721;28;20034;-67
2023/03/29 00:03:29;;;;;;;55.13;52.03;;;5.90;99.90;;;;;;5267653;28;20051;-67
2023/03/29 00:06:04;;;;;;;54.03;50.97;;;5.70;99.90;;;;;;5267680;28;20036;-67
2023/03/29 00:08:37;;;;;;;55.35;51.67;;;5.50;99.90;;;;;;5270002;28;20391;-67
2023/03/29 00:11:08;;;;;;;56.95;53.25;;;5.60;99.90;;;;;;5271955;28;20028;-67
2023/03/29 00:13:38;;;;;;;56.13;52.83;;;5.50;99.90;;;;;;5272042;28;20024;-67
2023/03/29 00:16:11;;;;;;;52.70;49.53;;;5.50;99.90;;;;;;5271838;28;20016;-66
2023/03/29 00:18:43;;;;;;;53.05;49.85;;;5.30;99.90;;;;;;5271828;28;20025;-67
2023/03/29 00:21:14;;;;;;;56.90;53.40;;;5.50;99.90;;;;;;5271755;28;20467;-67
2023/03/29 00:23:45;;;;;;;52.30;49.20;;;5.50;99.90;;;;;;5271497;28;20035;-67
2023/03/29 00:26:16;;;;;;;53.55;50.45;;;5.30;99.90;;;;;;5271565;28;20471;-66
2023/03/29 00:28:46;;;;;;;53.42;50.22;;;5.30;99.90;;;;;;5253414;28;20035;-67
2023/03/29 00:31:17;;;;;;;48.60;45.85;;;5.30;99.90;;;;;;5271299;28;20043;-67
2023/03/29 00:33:48;;;;;;;47.17;44.42;;;5.30;99.90;;;;;;5271585;28;20479;-66
2023/03/29 00:36:21;;;;;;;44.25;41.78;;;5.30;99.90;;;;;;5271590;28;20115;-67
2023/03/29 00:38:51;;;;;;;42.55;40.10;;;5.30;99.90;;;;;;5271140;28;20063;-67
2023/03/29 00:41:22;;;;;;;43.38;40.88;;;5.30;99.90;;;;;;5271234;28;20016;-67
2023/03/29 00:44:03;;;;;;;45.85;43.15;;;5.40;99.90;;;;;;5271192;28;20101;-67
2023/03/29 00:46:34;;;;;;;43.97;41.55;;;5.10;99.90;;;;;;5271142;28;20480;-66
2023/03/29 00:49:12;;;;;;;43.00;40.33;;;5.20;99.90;;;;;;5271251;28;20586;-67
2023/03/29 00:51:44;;;;;;;44.00;41.42;;;4.90;99.90;;;;;;5271638;28;20032;-67
2023/03/29 00:54:17;;;;;;;40.38;37.97;;;4.90;99.90;;;;;;5282947;28;20035;-67
2023/03/29 00:56:50;;;;;;;39.97;37.67;;;4.90;99.90;;;;;;5271936;28;20012;-67
2023/03/29 00:59:27;;;;;;;37.78;35.67;;;4.90;99.90;;;;;;5271066;28;20020;-67
2023/03/29 01:02:02;;;;;;;36.35;34.17;;;4.70;99.90;;;;;;5270818;28;20103;-67
2023/03/29 01:04:44;;;;;;;35.88;33.63;;;4.90;99.90;;;;;;5270870;28;20044;-67
2023/03/29 01:07:30;;;;;;;36.35;34.05;;;5.00;99.90;;;;;;5270997;28;20476;-67
2023/03/29 01:10:13;;;;;;;33.00;31.13;;;4.60;99.90;;;;;;5270879;28;20032;-66
2023/03/29 01:12:48;;;;;;;35.20;33.10;;;4.70;99.90;;;;;;5270873;28;20451;-67
2023/03/29 01:15:25;;;;;;;35.15;32.83;;;4.60;99.90;;;;;;5270797;28;20093;-66
2023/03/29 01:17:57;;;;;;;39.05;36.72;;;4.60;99.90;;;;;;5270636;28;20129;-66
2023/03/29 01:20:42;;;;;;;33.17;31.15;;;4.70;99.90;;;;;;5269251;28;20012;-67
2023/03/29 01:23:46;;;;;;;35.75;33.58;;;4.70;99.90;;;;;;5270486;28;20051;-67
2023/03/29 01:26:36;;;;;;;36.58;34.47;;;4.60;99.90;;;;;;5273710;28;20430;-68
2023/03/29 01:29:27;;;;;;;33.70;31.67;;;4.60;99.90;;;;;;5282410;28;20028;-68
2023/03/29 01:32:13;;;;;;;32.00;30.25;;;4.80;99.90;;;;;;5290607;28;20128;-68
2023/03/29 01:34:55;;;;;;;35.65;33.55;;;4.70;99.90;;;;;;5291234;28;20142;-68
2023/03/29 01:37:29;;;;;;;42.92;40.33;;;4.90;99.90;;;;;;5290888;28;20036;-68
2023/03/29 01:40:00;;;;;;;38.35;36.00;;;4.70;99.90;;;;;;5288658;28;20492;-67
2023/03/29 01:42:55;;;;;;;32.50;30.60;;;4.60;99.90;;;;;;5270099;28;20573;-66
2023/03/29 01:45:41;;;;;;;34.63;32.53;;;4.40;99.90;;;;;;5269950;28;20114;-66
2023/03/29 01:48:17;;;;;;;32.58;30.58;;;4.50;99.90;;;;;;5282080;28;20030;-66
2023/03/29 01:50:48;;;;;;;32.63;30.58;;;4.30;99.90;;;;;;5291003;28;20027;-67
2023/03/29 01:53:34;;;;;;;31.42;29.60;;;4.20;99.90;;;;;;5291159;28;20028;-66
2023/03/29 01:56:27;;;;;;;30.25;28.33;;;4.20;99.90;;;;;;5290868;28;20030;-66
2023/03/29 01:59:04;;;;;;;29.92;27.77;;;4.30;99.90;;;;;;5291021;28;20039;-66
2023/03/29 02:01:41;;;;;;;32.22;30.02;;;4.30;99.90;;;;;;5290791;28;20382;-67
2023/03/29 02:04:14;;;;;;;30.02;27.90;;;4.40;99.90;;;;;;5273427;28;20036;-66
2023/03/29 02:06:46;;;;;;;32.58;30.25;;;4.40;99.90;;;;;;5269678;28;20028;-66
2023/03/29 02:09:17;;;;;;;32.92;30.38;;;4.40;99.90;;;;;;5269738;28;20016;-66
2023/03/29 02:11:50;;;;;;;30.58;28.48;;;4.50;99.90;;;;;;5269666;28;20036;-66
2023/03/29 02:14:23;;;;;;;32.80;30.70;;;4.30;99.90;;;;;;5269644;28;20039;-66
2023/03/29 02:16:53;;;;;;;33.10;30.88;;;4.50;99.90;;;;;;5283007;28;20442;-67
2023/03/29 02:19:24;;;;;;;32.08;30.17;;;4.50;99.90;;;;;;5290463;28;20086;-66
2023/03/29 02:22:05;;;;;;;32.20;29.88;;;4.60;99.90;;;;;;5290515;28;20058;-66
2023/03/29 02:24:37;;;;;;;33.92;31.80;;;4.70;99.90;;;;;;5290285;28;20498;-66
2023/03/29 02:27:08;;;;;;;32.83;30.58;;;4.70;99.90;;;;;;5290329;28;20061;-66
2023/03/29 02:29:39;;;;;;;36.35;33.88;;;4.80;99.90;;;;;;5290331;28;20027;-66
2023/03/29 02:32:34;;;;;;;35.53;32.75;;;5.00;99.90;;;;;;5289584;28;20044;-66
2023/03/29 02:35:13;;;;;;;36.88;34.47;;;4.90;99.90;;;;;;5289888;28;20062;-66
2023/03/29 02:37:48;;;;;;;39.25;36.75;;;5.10;99.90;;;;;;5289758;28;20059;-66
2023/03/29 02:40:22;;;;;;;36.78;34.47;;;5.10;99.90;;;;;;5290213;28;20030;-66
2023/03/29 02:42:55;;;;;;;36.22;33.88;;;4.80;99.90;;;;;;5271741;28;20550;-66
2023/03/29 02:45:28;;;;;;;35.08;33.10;;;4.70;99.90;;;;;;5289853;28;20424;-66
2023/03/29 02:48:05;;;;;;;32.88;30.83;;;4.80;99.90;;;;;;5289958;28;20026;-66
2023/03/29 02:50:41;;;;;;;33.90;31.65;;;4.80;99.90;;;;;;5289857;28;20360;-66
2023/03/29 02:53:17;;;;;;;32.85;30.90;;;4.80;99.90;;;;;;5289859;28;20088;-66
2023/03/29 02:55:48;;;;;;;34.97;32.95;;;4.70;99.90;;;;;;5289886;28;20031;-66
2023/03/29 02:58:27;;;;;;;35.45;33.30;;;4.60;99.90;;;;;;5289737;28;20023;-66
2023/03/29 03:01:00;;;;;;;32.60;30.40;;;4.80;99.90;;;;;;5283114;28;20552;-66
2023/03/29 03:03:31;;;;;;;33.08;31.13;;;4.70;99.90;;;;;;5269541;28;20663;-66
2023/03/29 03:06:02;;;;;;;34.25;32.15;;;4.60;99.90;;;;;;5268772;28;20056;-66
2023/03/29 03:08:33;;;;;;;34.33;32.13;;;4.90;99.90;;;;;;5268464;28;20063;-66
2023/03/29 03:11:04;;;;;;;34.40;32.10;;;4.40;99.90;;;;;;5268436;28;20020;-66
2023/03/29 03:13:35;;;;;;;32.63;30.63;;;4.40;99.90;;;;;;5268341;28;20115;-67
2023/03/29 03:16:07;;;;;;;34.08;32.08;;;4.40;99.90;;;;;;5268293;28;20032;-67
2023/03/29 03:18:38;;;;;;;37.72;35.00;;;4.70;99.90;;;;;;5268177;28;20176;-67
2023/03/29 03:21:08;;;;;;;37.30;34.80;;;4.70;99.90;;;;;;5268358;28;20137;-67
2023/03/29 03:23:39;;;;;;;37.20;34.78;;;4.90;99.90;;;;;;5268292;28;20451;-67
2023/03/29 03:26:11;;;;;;;35.63;33.33;;;5.10;99.90;;;;;;5268206;28;20068;-66
2023/03/29 03:28:42;;;;;;;35.83;33.67;;;5.10;99.90;;;;;;5268215;28;20115;-66
2023/03/29 03:31:13;;;;;;;35.20;32.95;;;4.90;99.90;;;;;;5272502;28;20123;-67
2023/03/29 03:33:45;;;;;;;36.75;34.45;;;4.80;99.90;;;;;;5288238;28;20495;-66
2023/03/29 03:36:16;;;;;;;36.05;33.88;;;4.80;99.90;;;;;;5262965;28;20499;-66
2023/03/29 03:38:46;;;;;;;38.17;35.88;;;5.00;99.90;;;;;;5272766;28;20039;-67
2023/03/29 03:41:17;;;;;;;37.63;35.33;;;4.80;99.90;;;;;;5289102;28;20035;-66
2023/03/29 03:43:48;;;;;;;39.67;37.15;;;5.00;99.90;;;;;;5287897;28;20080;-67
2023/03/29 03:46:19;;;;;;;38.42;36.03;;;5.10;99.90;;;;;;5281501;28;20036;-66
2023/03/29 03:48:50;;;;;;;39.47;37.17;;;4.90;99.90;;;;;;5277417;28;20162;-67
2023/03/29 03:51:21;;;;;;;42.28;39.72;;;5.00;99.90;;;;;;5267822;28;20028;-67
2023/03/29 03:53:52;;;;;;;37.17;34.58;;;4.90;99.90;;;;;;5249704;28;20026;-67
2023/03/29 03:56:24;;;;;;;36.38;33.97;;;4.60;99.90;;;;;;5267640;28;20028;-67
2023/03/29 03:58:55;;;;;;;36.97;34.47;;;4.50;99.90;;;;;;5267663;28;20016;-68
2023/03/29 04:01:27;;;;;;;31.13;29.23;;;4.60;99.90;;;;;;5267799;28;20052;-67
2023/03/29 04:03:57;;;;;;;31.98;29.95;;;4.30;99.90;;;;;;5267587;28;20046;-67
2023/03/29 04:06:29;;;;;;;32.08;30.17;;;4.40;99.90;;;;;;5267420;28;20036;-67
2023/03/29 04:09:00;;;;;;;33.53;31.38;;;3.90;99.90;;;;;;5267758;28;20025;-67
2023/03/29 04:11:31;;;;;;;31.02;29.17;;;3.70;99.90;;;;;;5267731;28;20043;-67
2023/03/29 04:14:01;;;;;;;35.42;33.38;;;3.60;99.90;;;;;;5267612;28;20153;-67
2023/03/29 04:16:32;;;;;;;33.25;31.25;;;3.70;99.90;;;;;;5267495;28;20024;-67
2023/03/29 04:19:03;;;;;;;31.95;30.08;;;3.90;99.90;;;;;;5267562;28;20020;-67
2023/03/29 04:21:34;;;;;;;31.23;29.45;;;3.80;99.90;;;;;;5267506;28;20032;-68
2023/03/29 04:24:06;;;;;;;34.97;32.97;;;3.60;99.90;;;;;;5267485;28;20036;-67
2023/03/29 04:26:37;;;;;;;32.47;30.58;;;3.40;99.90;;;;;;5267491;28;20502;-67
2023/03/29 04:29:08;;;;;;;32.83;30.85;;;3.60;99.90;;;;;;5269977;28;20024;-67
2023/03/29 04:31:38;;;;;;;31.70;29.70;;;3.50;99.90;;;;;;5276129;28;20032;-67
2023/03/29 04:34:09;;;;;;;34.95;33.05;;;3.50;99.90;;;;;;5267724;28;20064;-67
2023/03/29 04:36:40;;;;;;;31.35;29.58;;;3.50;99.90;;;;;;5267288;28;20031;-67
2023/03/29 04:39:11;;;;;;;31.35;29.52;;;3.70;99.90;;;;;;5267448;28;20036;-67
2023/03/29 04:41:43;;;;;;;31.83;30.13;;;3.60;99.90;;;;;;5267334;28;20016;-68
2023/03/29 04:44:14;;;;;;;32.83;31.02;;;3.30;99.90;;;;;;5267175;28;20047;-67
2023/03/29 04:46:44;;;;;;;31.73;29.92;;;3.40;99.90;;;;;;5267354;28;20024;-67
2023/03/29 04:49:15;;;;;;;33.22;31.40;;;3.70;99.90;;;;;;5267394;28;20380;-67
2023/03/29 04:51:46;;;;;;;32.13;30.30;;;3.60;99.90;;;;;;5267378;28;20028;-67
2023/03/29 04:54:17;;;;;;;31.58;29.77;;;3.50;99.90;;;;;;5269087;28;20028;-67
2023/03/29 04:56:48;;;;;;;32.03;30.08;;;3.80;99.90;;;;;;5271186;28;20468;-68
2023/03/29 04:59:19;;;;;;;32.60;30.75;;;3.70;99.90;;;;;;5271151;28;20027;-68
2023/03/29 05:01:50;;;;;;;32.05;30.15;;;3.70;99.90;;;;;;5270938;28;20060;-68
2023/03/29 05:04:21;;;;;;;29.52;27.85;;;4.00;99.90;;;;;;5270880;28;20160;-67
2023/03/29 05:06:52;;;;;;;29.63;27.92;;;3.80;99.90;;;;;;5270864;28;20023;-67
2023/03/29 05:09:24;;;;;;;32.05;30.08;;;3.90;99.90;;;;;;5252770;28;20028;-67
2023/03/29 05:11:55;;;;;;;32.55;30.75;;;4.00;99.90;;;;;;5270699;28;20165;-68
2023/03/29 05:14:26;;;;;;;31.52;29.80;;;4.50;99.90;;;;;;5270725;28;20095;-67
2023/03/29 05:16:57;;;;;;;30.35;28.65;;;4.20;99.90;;;;;;5270779;28;20047;-68
2023/03/29 05:19:28;;;;;;;32.35;30.23;;;4.20;99.90;;;;;;5270713;28;20020;-67
2023/03/29 05:21:59;;;;;;;31.65;29.70;;;4.50;99.90;;;;;;5270661;28;20447;-67
2023/03/29 05:24:30;;;;;;;31.92;30.13;;;4.50;99.90;;;;;;5270532;28;20047;-67
2023/03/29 05:27:01;;;;;;;29.05;27.35;;;4.30;99.90;;;;;;5274027;28;20036;-67
2023/03/29 05:29:32;;;;;;;30.77;29.08;;;4.20;99.90;;;;;;5271533;28;20042;-67
2023/03/29 05:32:03;;;;;;;29.10;27.27;;;4.40;99.90;;;;;;5291439;28;20047;-67
2023/03/29 05:34:35;;;;;;;31.52;29.73;;;4.60;99.90;;;;;;5273487;28;20027;-67
2023/03/29 05:37:06;;;;;;;30.17;28.38;;;4.50;99.90;;;;;;5286978;28;20412;-67
2023/03/29 05:39:37;;;;;;;32.90;30.95;;;4.70;99.90;;;;;;5272570;28;20376;-69
2023/03/29 05:42:11;;;;;;;35.13;33.13;;;4.80;99.90;;;;;;5270392;28;20024;-63
2023/03/29 05:44:42;;;;;;;32.92;31.10;;;4.90;99.90;;;;;;5270169;28;20047;-67
2023/03/29 05:47:13;;;;;;;32.50;30.60;;;4.80;99.90;;;;;;5270182;28;20029;-67
2023/03/29 05:49:45;;;;;;;33.40;31.52;;;4.80;99.90;;;;;;5270142;28;20406;-66
2023/03/29 05:52:15;;;;;;;37.55;35.17;;;4.80;99.90;;;;;;5270404;28;20028;-67
2023/03/29 05:54:46;;;;;;;37.53;35.33;;;4.90;99.90;;;;;;5270451;28;20020;-69
2023/03/29 05:57:17;;;;;;;37.90;35.55;;;4.70;99.90;;;;;;5270193;28;20020;-66
2023/03/29 05:59:48;;;;;;;35.20;33.30;;;4.80;99.90;;;;;;5270022;28;20028;-67
2023/03/29 06:02:19;;;;;;;35.00;33.10;;;4.80;99.90;;;;;;5269999;28;20024;-67
2023/03/29 06:04:50;;;;;;;33.53;31.63;;;5.00;99.90;;;;;;5269332;28;20036;-67
2023/03/29 06:07:23;;;;;;;36.35;34.30;;;5.00;99.90;;;;;;5269368;28;20100;-67
2023/03/29 06:09:54;;;;;;;35.05;32.97;;;5.00;99.90;;;;;;5269837;28;20039;-66
2023/03/29 06:12:25;;;;;;;38.63;36.25;;;4.60;99.90;;;;;;5269644;28;20390;-67
2023/03/29 06:15:01;;;;;;;36.92;34.72;;;4.70;99.90;;;;;;5269557;28;20047;-67
2023/03/29 06:17:33;;;;;;;39.22;36.88;;;5.00;99.90;;;;;;5269705;28;20372;-67
2023/03/29 06:20:09;;;;;;;40.65;38.13;;;5.10;99.90;;;;;;5269595;28;20032;-67
2023/03/29 06:22:41;;;;;;;41.63;39.28;;;5.10;99.90;;;;;;5269703;28;20396;-67
2023/03/29 06:25:14;;;;;;;39.75;37.40;;;5.00;99.90;;;;;;5269446;28;20043;-67
2023/03/29 06:27:46;;;;;;;39.08;36.80;;;5.20;99.90;;;;;;5269346;28;20017;-67
2023/03/29 06:30:18;;;;;;;44.53;42.03;;;5.20;99.90;;;;;;5269393;28;20416;-67
2023/03/29 06:32:49;;;;;;;44.95;42.45;;;5.30;99.90;;;;;;5269135;28;20566;-67
2023/03/29 06:35:20;;;;;;;40.70;38.30;;;5.30;99.90;;;;;;5269293;28;20481;-67
2023/03/29 06:37:52;;;;;;;42.78;40.38;;;5.20;99.90;;;;;;5269104;28;20016;-67
2023/03/29 06:40:23;;;;;;;42.20;39.85;;;5.40;99.90;;;;;;5269165;28;20028;-68
2023/03/29 06:42:58;;;;;;;43.78;41.22;;;5.40;99.90;;;;;;5269229;28;20103;-68
2023/03/29 06:45:35;;;;;;;40.13;37.92;;;5.40;99.90;;;;;;5268801;28;20067;-67
2023/03/29 06:48:06;;;;;;;47.63;44.75;;;5.40;99.90;;;;;;5268826;28;20027;-68
2023/03/29 06:50:37;;;;;;;47.58;44.83;;;5.80;99.90;;;;;;5268915;28;20359;-66
2023/03/29 06:53:08;;;;;;;47.60;44.92;;;5.70;99.90;;;;;;5268833;28;20032;-66
2023/03/29 06:55:40;;;;;;;45.58;42.97;;;5.70;99.90;;;;;;5268792;28;20468;-67
2023/03/29 06:58:11;;;;;;;53.28;50.17;;;5.70;99.90;;;;;;5268825;28;20016;-66
2023/03/29 07:00:42;;;;;;;52.95;49.67;;;6.20;99.90;;;;;;5268665;28;20030;-67
2023/03/29 07:03:19;;;;;;;56.00;52.90;;;6.10;99.90;;;;;;5250453;28;20028;-67
2023/03/29 07:05:50;;;;;;;53.72;50.35;;;6.10;99.90;;;;;;5268594;28;20126;-67
2023/03/29 07:08:21;;;;;;;54.17;51.22;;;6.30;99.90;;;;;;5268376;28;20133;-67
2023/03/29 07:10:52;;;;;;;53.45;50.33;;;6.00;99.90;;;;;;5268752;28;20484;-67
2023/03/29 07:13:25;;;;;;;54.05;51.00;;;6.10;99.90;;;;;;5269000;28;20031;-67
2023/03/29 07:15:56;;;;;;;58.75;55.45;;;6.30;99.90;;;;;;5268680;28;20488;-66
2023/03/29 07:18:27;;;;;;;62.42;58.90;;;6.70;99.90;;;;;;5267527;28;20038;-67
2023/03/29 07:20:58;;;;;;;61.67;58.25;;;6.80;99.90;;;;;;5268523;28;20024;-67
2023/03/29 07:23:29;;;;;;;63.15;59.60;;;6.60;99.90;;;;;;5268230;28;20406;-67
2023/03/29 07:26:01;;;;;;;57.50;53.97;;;7.00;99.90;;;;;;5268425;28;20357;-67
2023/03/29 07:28:32;;;;;;;52.88;49.78;;;6.80;99.90;;;;;;5268233;28;20039;-67
2023/03/29 07:31:06;;;;;;;48.38;45.75;;;7.10;99.90;;;;;;5267942;28;20395;-67
2023/03/29 07:33:37;;;;;;;51.42;48.45;;;7.20;99.90;;;;;;5268202;28;20039;-67
2023/03/29 07:36:09;;;;;;;48.53;45.85;;;7.40;99.90;;;;;;5268098;28;20020;-67
2023/03/29 07:38:40;;;;;;;45.00;42.30;;;7.40;99.90;;;;;;5268060;28;20349;-67
2023/03/29 07:41:11;;;;;;;48.88;46.17;;;7.10;99.90;;;;;;5268133;28;20119;-67
2023/03/29 07:43:42;;;;;;;46.03;43.50;;;7.20;99.90;;;;;;5267724;28;20077;-67
2023/03/29 07:46:13;;;;;;;44.45;42.15;;;7.60;99.90;;;;;;5267982;28;20024;-66
2023/03/29 07:48:44;;;;;;;45.20;42.60;;;7.10;99.90;;;;;;5267909;28;20026;-67
2023/03/29 07:51:15;;;;;;;46.60;44.00;;;7.30;99.90;;;;;;5267892;28;20057;-67
2023/03/29 07:53:46;;;;;;;41.83;39.63;;;7.30;99.90;;;;;;5267896;28;20115;-67
2023/03/29 07:56:17;;;;;;;44.15;41.83;;;7.60;99.90;;;;;;5267701;28;20150;-67
2023/03/29 07:58:48;;;;;;;43.95;41.55;;;8.00;99.90;;;;;;5267851;28;20024;-67
2023/03/29 08:01:19;;;;;;;44.60;42.10;;;8.00;99.90;;;;;;5267720;28;20483;-67
2023/03/29 08:03:50;;;;;;;49.20;46.38;;;7.50;99.90;;;;;;5267661;28;20036;-67
2023/03/29 08:06:21;;;;;;;41.40;39.13;;;7.40;99.90;;;;;;5267709;28;20055;-66
2023/03/29 08:08:52;;;;;;;43.78;41.08;;;7.70;99.90;;;;;;5267711;28;20055;-67
2023/03/29 08:11:23;;;;;;;44.85;42.22;;;7.60;99.90;;;;;;5267762;28;20025;-67
2023/03/29 08:13:55;;;;;;;42.05;39.53;;;7.70;99.90;;;;;;5268010;28;20372;-67
2023/03/29 08:16:26;;;;;;;44.83;42.22;;;7.30;99.90;;;;;;5267608;28;20372;-67
2023/03/29 08:18:56;;;;;;;40.92;38.63;;;8.20;99.90;;;;;;5267534;28;20034;-67
2023/03/29 08:21:27;;;;;;;43.20;40.80;;;8.00;99.90;;;;;;5267539;28;20009;-67
2023/03/29 08:23:58;;;;;;;40.67;38.40;;;8.20;99.90;;;;;;5267619;28;20445;-67
2023/03/29 08:26:29;;;;;;;42.88;40.58;;;8.40;99.90;;;;;;5267624;28;20476;-68
2023/03/29 08:29:00;;;;;;;78.65;73.60;;;8.70;99.90;;;;;;5251415;28;20028;-68
2023/03/29 08:31:32;;;;;;;41.15;38.95;;;9.00;99.90;;;;;;5271379;28;20047;-68
2023/03/29 08:34:03;;;;;;;38.47;36.28;;;9.20;99.90;;;;;;5271251;28;20078;-68
2023/03/29 08:36:34;;;;;;;41.05;38.75;;;9.20;99.90;;;;;;5270589;28;20051;-68
2023/03/29 08:39:05;;;;;;;38.20;36.20;;;9.40;99.90;;;;;;5270757;28;20024;-68
2023/03/29 08:42:05;;;;;;;40.95;38.75;;;8.90;99.90;;;;;;5271142;28;20020;-68
2023/03/29 08:44:51;;;;;;;45.17;42.72;;;8.70;99.90;;;;;;5223648;28;20067;-67
2023/03/29 08:47:57;;;;;;;45.78;43.30;;;8.20;99.90;;;;;;5271236;28;20024;-68
2023/03/29 08:50:38;;;;;;;47.67;45.15;;;8.20;99.90;;;;;;5270284;28;20476;-67
2023/03/29 08:53:17;;;;;;;;;;;8.30;99.90;;;;;;5271545;28;20020;-68
2023/03/29 08:55:51;;;;;;;44.93;42.50;;;8.00;99.90;;;;;;5271005;28;19904;-68
2023/03/29 08:58:27;;;;;;;43.38;40.97;;;7.60;99.90;;;;;;5270920;28;20481;-68
2023/03/29 09:01:02;;;;;;;46.58;43.88;;;7.80;99.90;;;;;;5270882;28;20028;-68
2023/03/29 09:04:01;;;;;;;49.92;47.22;;;7.60;99.90;;;;;;5271102;28;20035;-68
2023/03/29 09:06:32;;;;;;;47.88;45.05;;;7.60;99.90;;;;;;5271018;28;20028;-68
2023/03/29 09:09:05;;;;;;;45.25;42.55;;;7.80;99.90;;;;;;5271029;28;20024;-68
2023/03/29 09:11:38;;;;;;;46.03;43.53;;;8.80;99.90;;;;;;5270905;28;20024;-68
2023/03/29 09:14:30;;;;;;;49.20;46.50;;;8.90;99.90;;;;;;5270905;28;20059;-68
2023/03/29 09:17:23;;;;;;;48.55;45.75;;;8.40;99.90;;;;;;5270863;28;20024;-68
2023/03/29 09:20:18;;;;;;;47.97;45.38;;;8.40;99.90;;;;;;5270924;28;20416;-68
2023/03/29 09:23:14;;;;;;;46.90;44.40;;;8.20;99.90;;;;;;5252799;28;20024;-68
2023/03/29 09:25:54;;;;;;;47.55;44.95;;;8.30;99.90;;;;;;5270848;28;20039;-68
2023/03/29 09:28:38;;;;;;;48.17;45.38;;;8.10;99.90;;;;;;5252915;28;20361;-67
2023/03/29 09:31:21;;;;;;;52.20;49.08;;;7.90;99.90;;;;;;5270414;28;20040;-68
2023/03/29 09:33:58;;;;;;;54.22;51.10;;;8.10;99.90;;;;;;5270663;28;20035;-68
2023/03/29 09:36:44;;;;;;;47.83;44.35;;;8.10;99.90;;;;;;5270609;28;20016;-68
2023/03/29 09:39:15;;;;;;;49.72;46.80;;;8.00;99.90;;;;;;5270493;28;20047;-68
2023/03/29 09:42:07;;;;;;;49.28;46.55;;;8.20;99.90;;;;;;5251242;28;20054;-68
2023/03/29 09:44:44;;;;;;;50.88;47.97;;;8.30;99.90;;;;;;5270235;28;20040;-68
2023/03/29 09:47:34;;;;;;;46.17;43.47;;;8.60;99.90;;;;;;5270334;28;20025;-68
2023/03/29 09:50:20;;;;;;;47.20;44.65;;;8.30;99.90;;;;;;5270286;28;20040;-67
2023/03/29 09:52:50;;;;;;;48.35;45.63;;;8.10;99.90;;;;;;5270224;28;20095;-68
2023/03/29 09:55:26;;;;;;;45.97;43.38;;;8.00;99.90;;;;;;5270182;28;20107;-68
2023/03/29 09:58:11;;;;;;;45.95;43.42;;;7.90;99.90;;;;;;5270047;28;20085;-68
2023/03/29 10:00:42;;;;;;;44.08;41.63;;;8.00;99.90;;;;;;5269921;28;20028;-68
2023/03/29 10:03:20;;;;;;;47.53;44.95;;;7.80;99.90;;;;;;5269826;28;20032;-68
2023/03/29 10:05:54;;;;;;;48.88;46.08;;;7.70;99.90;;;;;;5269623;28;20468;-68
2023/03/29 10:08:35;;;;;;;48.67;46.08;;;7.90;99.90;;;;;;5269870;28;20027;-68
2023/03/29 10:11:34;;;;;;;46.70;44.00;;;7.90;99.90;;;;;;5269766;28;20472;-68
2023/03/29 10:14:15;;;;;;;106.65;99.05;;;8.10;99.90;;;;;;5269661;28;20020;-66
2023/03/29 10:16:54;;;;;;;48.67;45.97;;;8.50;99.90;;;;;;5269572;28;20024;-68
2023/03/29 10:19:33;;;;;;;50.75;47.85;;;7.80;99.90;;;;;;5269543;28;20505;-68
2023/03/29 10:22:16;;;;;;;44.72;42.33;;;7.90;99.90;;;;;;5269491;28;20154;-68
2023/03/29 10:24:50;;;;;;;48.38;45.72;;;7.80;99.90;;;;;;5269395;28;20039;-67
2023/03/29 10:27:25;;;;;;;46.17;43.47;;;7.70;99.90;;;;;;5269350;28;20020;-68
2023/03/29 10:30:00;;;;;;;50.88;47.97;;;7.80;99.90;;;;;;5269388;28;20055;-68
2023/03/29 10:32:37;;;;;;;53.42;50.28;;;8.00;99.90;;;;;;5269148;28;20044;-68
2023/03/29 10:35:22;;;;;;;53.28;50.38;;;7.70;99.90;;;;;;5269346;28;20039;-68
2023/03/29 10:37:57;;;;;;;49.95;47.00;;;6.80;99.90;;;;;;5269159;28;20027;-68
2023/03/29 10:40:45;;;;;;;51.90;49.00;;;6.80;99.90;;;;;;5269256;28;20020;-67
2023/03/29 10:43:16;;;;;;;54.10;51.08;;;6.40;99.90;;;;;;5269460;28;20487;-68
2023/03/29 10:45:49;;;;;;;57.05;53.85;;;6.50;99.90;;;;;;5269195;28;20043;-68
2023/03/29 10:48:29;;;;;;;60.45;57.00;;;6.40;99.90;;;;;;5269244;28;20031;-68
2023/03/29 10:51:01;;;;;;;61.58;58.13;;;6.30;99.90;;;;;;5268881;28;20020;-68
2023/03/29 10:53:36;;;;;;;59.50;56.22;;;6.40;99.90;;;;;;5268924;28;20053;-68
2023/03/29 10:56:37;;;;;;;61.83;58.42;;;5.90;99.90;;;;;;5280900;28;20529;-68
2023/03/29 10:59:49;;;;;;;60.08;56.78;;;5.50;99.90;;;;;;5289818;28;20035;-68
2023/03/29 11:02:45;;;;;;;61.30;57.88;;;6.20;99.90;;;;;;5233625;28;20046;-68
2023/03/29 11:05:31;;;;;;;62.22;58.72;;;5.90;99.90;;;;;;5289677;28;20425;-68
2023/03/29 11:08:26;;;;;;;58.75;55.55;;;5.60;99.90;;;;;;5289732;28;20024;-68
2023/03/29 11:11:20;;;;;;;63.22;59.63;;;5.60;99.90;;;;;;5289664;28;20180;-68
2023/03/29 11:14:16;;;;;;;55.70;52.63;;;5.50;99.90;;;;;;5268602;28;20035;-68
2023/03/29 11:17:16;;;;;;;55.85;52.83;;;5.70;99.90;;;;;;5268650;28;20383;-68
2023/03/29 11:19:58;;;;;;;58.42;55.15;;;5.80;99.90;;;;;;5268546;28;20437;-67
2023/03/29 11:23:02;;;;;;;58.58;55.38;;;6.10;99.90;;;;;;5268539;28;20093;-67
2023/03/29 11:25:57;;;;;;;59.67;56.42;;;7.00;99.90;;;;;;5268315;28;20072;-67
2023/03/29 11:28:30;;;;;;;48.55;45.78;;;7.10;99.90;;;;;;5268429;28;20016;-65
2023/03/29 11:31:40;;;;;;;47.03;44.35;;;8.10;99.90;;;;;;5267772;28;20138;-68
2023/03/29 11:34:35;;;;;;;45.53;42.97;;;8.40;99.90;;;;;;5265649;28;20094;-70
2023/03/29 11:37:34;;;;;;;39.40;37.25;;;8.60;99.90;;;;;;5267862;28;20550;-68
2023/03/29 11:40:11;;;;;;;40.55;38.22;;;8.30;99.90;;;;;;5268158;28;20027;-68
2023/03/29 11:42:47;;;;;;;40.03;37.83;;;8.10;99.90;;;;;;5268148;28;20073;-68
2023/03/29 11:45:35;;;;;;;40.85;38.65;;;7.90;99.90;;;;;;5268024;28;20051;-67
2023/03/29 11:48:16;;;;;;;43.65;41.28;;;7.60;99.90;;;;;;5267836;28;20039;-68
2023/03/29 11:51:05;;;;;;;46.15;43.65;;;8.10;99.90;;;;;;5268036;28;20466;-67
2023/03/29 11:54:27;;;;;;;42.72;40.40;;;8.30;99.90;;;;;;5268136;28;20694;-67
2023/03/29 11:57:25;;;;;;;43.78;41.38;;;8.10;99.90;;;;;;5162928;28;20418;-67
2023/03/29 12:00:05;;;;;;;44.55;42.08;;;8.30;99.90;;;;;;5162572;28;20034;-68
2023/03/29 12:02:45;;;;;;;39.10;36.90;;;9.10;99.90;;;;;;5162827;28;20057;-68
2023/03/29 12:05:26;;;;;;;34.72;32.67;;;9.50;99.90;;;;;;5166139;28;20048;-68
2023/03/29 12:08:00;;;;;;;30.25;28.55;;;10.10;99.90;;;;;;5166820;28;20082;-68
2023/03/29 12:10:48;;;;;;;36.20;34.22;;;10.40;99.90;;;;;;5150424;28;20026;-68
2023/03/29 12:13:29;;;;;;;38.15;36.05;;;9.30;99.90;;;;;;5166808;28;20471;-68
2023/03/29 12:16:25;;;;;;;41.80;39.40;;;8.30;99.90;;;;;;5166750;28;20022;-67
2023/03/29 12:19:01;;;;;;;40.35;38.15;;;9.00;99.90;;;;;;5166715;28;20101;-68
2023/03/29 12:21:35;;;;;;;39.47;37.10;;;9.60;99.90;;;;;;5166582;28;20042;-69
2023/03/29 12:24:10;;;;;;;56.55;52.83;;;9.70;99.90;;;;;;5166338;28;20073;-68
2023/03/29 12:27:08;;;;;;;38.08;35.53;;;9.80;99.90;;;;;;5186039;28;20040;-68
2023/03/29 12:29:47;;;;;;;68.05;54.40;;;10.00;99.90;;;;;;5254009;28;20475;-70
2023/03/29 12:32:39;;;;;;;32.40;30.67;;;9.80;99.90;;;;;;5271418;28;20048;-67
2023/03/29 12:35:39;;;;;;;53.50;49.28;;;9.20;99.90;;;;;;5271652;28;20365;-68
2023/03/29 12:38:15;;;;;;;36.88;34.63;;;9.50;99.90;;;;;;5271742;28;20020;-68
2023/03/29 12:40:52;;;;;;;36.03;34.03;;;9.60;99.90;;;;;;5271355;28;20030;-68
2023/03/29 12:43:30;;;;;;;33.92;32.03;;;9.50;99.90;;;;;;5271517;28;20036;-67
2023/03/29 12:46:08;;;;;;;37.80;35.78;;;9.80;99.90;;;;;;5271595;28;20101;-68
2023/03/29 12:48:41;;;;;;;37.13;35.05;;;9.30;99.90;;;;;;5276568;28;20095;-67
2023/03/29 12:51:16;;;;;;;34.42;32.33;;;9.30;99.90;;;;;;5290224;28;20023;-68
2023/03/29 12:53:50;;;;;;;40.30;38.10;;;9.40;99.90;;;;;;5292338;28;20039;-68
2023/03/29 12:56:56;;;;;;;38.53;36.42;;;9.00;99.90;;;;;;5292292;28;20712;-68
2023/03/29 12:59:38;;;;;;;42.20;39.70;;;8.80;99.90;;;;;;5292594;28;20110;-68
2023/03/29 13:02:12;;;;;;;42.70;40.35;;;8.80;99.90;;;;;;5292363;28;20042;-67
2023/03/29 13:04:52;;;;;;;48.25;45.50;;;8.20;99.90;;;;;;5292286;28;20553;-68
2023/03/29 13:07:25;;;;;;;52.03;49.03;;;8.10;99.90;;;;;;5292318;28;20028;-68
2023/03/29 13:09:57;;;;;;;51.15;48.15;;;8.10;99.90;;;;;;5292320;28;20020;-66
2023/03/29 13:12:36;;;;;;;48.20;45.50;;;7.80;99.90;;;;;;5292329;28;20028;-68
2023/03/29 13:15:22;;;;;;;54.45;51.33;;;7.80;99.90;;;;;;5291985;28;20447;-68
2023/03/29 13:18:01;;;;;;;50.13;47.20;;;8.00;99.90;;;;;;5292185;28;20115;-68
2023/03/29 13:20:50;;;;;;;55.13;51.95;;;7.70;99.90;;;;;;5292037;28;20023;-68
2023/03/29 13:24:07;;;;;;;57.78;54.58;;;7.60;99.90;;;;;;5291885;28;20019;-68
2023/03/29 13:26:53;;;;;;;53.92;50.85;;;6.90;99.90;;;;;;5269907;28;20051;-67